BAW902 EGLL-EDDF
Flight info
| Callsign | BAW902 |
|---|---|
| Flight time | 1h 5m |
| Altitude | 35000 |
| Route | DET L6 DVR UL9 KONAN UL607 SPI T180 NIVNU T847 IMCOM IMCOM1D |
| Aircraft | A20N/M-SDE2E3FGHIRWXY/LB1 |
Departure
| Time | 2026-04-15 10:46 |
|---|---|
| Airport | London Heathrow Airport (EGLL) |
Arrival
| Time | 2026-04-15 11:52 |
|---|---|
| Airport | Frankfurt Main Airport (EDDF) |
| Time | Latitude | Longitude | Altitude | Speed | Heading |
|---|---|---|---|---|---|
| 2026-04-15 09:37 | 51.46931 | -0.48715 | 86 ft | 0 kts | 360° |
| 2026-04-15 10:14 | 51.46929 | -0.48715 | 86 ft | 0 kts | 360° |
| 2026-04-15 10:14 | 51.46927 | -0.48715 | 86 ft | 0 kts | 360° |
| 2026-04-15 10:15 | 51.46924 | -0.48715 | 86 ft | 0 kts | 360° |
| 2026-04-15 10:15 | 51.46921 | -0.48715 | 86 ft | 0 kts | 360° |
| 2026-04-15 10:15 | 51.46919 | -0.48715 | 90 ft | 0 kts | 360° |
| 2026-04-15 10:15 | 51.46917 | -0.48715 | 90 ft | 0 kts | 360° |
| 2026-04-15 10:17 | 51.46914 | -0.48715 | 90 ft | 0 kts | 1° |
| 2026-04-15 10:17 | 51.46907 | -0.48715 | 86 ft | 2 kts | 11° |
| 2026-04-15 10:18 | 51.46874 | -0.48748 | 90 ft | 0 kts | 59° |
| 2026-04-15 10:18 | 51.46876 | -0.48745 | 90 ft | 0 kts | 51° |
| 2026-04-15 10:18 | 51.46876 | -0.48742 | 91 ft | 0 kts | 66° |
| 2026-04-15 10:18 | 51.46878 | -0.48725 | 87 ft | 3 kts | 80° |
| 2026-04-15 10:19 | 51.46878 | -0.48701 | 87 ft | 0 kts | 89° |
| 2026-04-15 10:19 | 51.46878 | -0.48700 | 87 ft | 0 kts | 90° |
| 2026-04-15 10:20 | 51.46878 | -0.48697 | 87 ft | 1 kts | 90° |
| 2026-04-15 10:21 | 51.46878 | -0.48658 | 86 ft | 5 kts | 92° |
| 2026-04-15 10:21 | 51.46877 | -0.48577 | 86 ft | 9 kts | 90° |
| 2026-04-15 10:21 | 51.46877 | -0.48455 | 86 ft | 13 kts | 90° |
| 2026-04-15 10:21 | 51.46837 | -0.48361 | 87 ft | 11 kts | 161° |
| 2026-04-15 10:22 | 51.46761 | -0.48338 | 90 ft | 12 kts | 147° |
| 2026-04-15 10:22 | 51.46742 | -0.48208 | 86 ft | 14 kts | 93° |
| 2026-04-15 10:22 | 51.46743 | -0.48043 | 86 ft | 16 kts | 90° |
| 2026-04-15 10:22 | 51.46744 | -0.47854 | 86 ft | 18 kts | 89° |
| 2026-04-15 10:23 | 51.46744 | -0.47646 | 86 ft | 19 kts | 90° |
| 2026-04-15 10:23 | 51.46742 | -0.47438 | 86 ft | 20 kts | 91° |
| 2026-04-15 10:23 | 51.46746 | -0.47212 | 87 ft | 20 kts | 90° |
| 2026-04-15 10:23 | 51.46746 | -0.47106 | 90 ft | 8 kts | 90° |
| 2026-04-15 10:24 | 51.46747 | -0.47017 | 88 ft | 8 kts | 89° |
| 2026-04-15 10:24 | 51.46747 | -0.46927 | 90 ft | 8 kts | 89° |
| 2026-04-15 10:24 | 51.46747 | -0.46838 | 88 ft | 8 kts | 90° |
| 2026-04-15 10:24 | 51.46748 | -0.46750 | 89 ft | 8 kts | 89° |
| 2026-04-15 10:25 | 51.46748 | -0.46666 | 86 ft | 7 kts | 89° |
| 2026-04-15 10:25 | 51.46748 | -0.46603 | 87 ft | 0 kts | 90° |
| 2026-04-15 10:26 | 51.46748 | -0.46600 | 87 ft | 2 kts | 90° |
| 2026-04-15 10:26 | 51.46748 | -0.46568 | 86 ft | 4 kts | 90° |
| 2026-04-15 10:26 | 51.46748 | -0.46525 | 86 ft | 4 kts | 90° |
| 2026-04-15 10:26 | 51.46749 | -0.46482 | 86 ft | 4 kts | 90° |
| 2026-04-15 10:27 | 51.46748 | -0.46442 | 86 ft | 4 kts | 91° |
| 2026-04-15 10:27 | 51.46748 | -0.46403 | 87 ft | 3 kts | 91° |
| 2026-04-15 10:27 | 51.46747 | -0.46367 | 87 ft | 3 kts | 91° |
| 2026-04-15 10:27 | 51.46747 | -0.46364 | 87 ft | 3 kts | 91° |
| 2026-04-15 10:28 | 51.46747 | -0.46356 | 90 ft | 3 kts | 91° |
| 2026-04-15 10:28 | 51.46747 | -0.46346 | 90 ft | 3 kts | 91° |
| 2026-04-15 10:28 | 51.46747 | -0.46323 | 88 ft | 3 kts | 90° |
| 2026-04-15 10:28 | 51.46747 | -0.46316 | 90 ft | 0 kts | 90° |
| 2026-04-15 10:29 | 51.46747 | -0.46315 | 90 ft | 0 kts | 90° |
| 2026-04-15 10:29 | 51.46747 | -0.46291 | 90 ft | 6 kts | 89° |
| 2026-04-15 10:30 | 51.46747 | -0.46217 | 87 ft | 7 kts | 90° |
| 2026-04-15 10:30 | 51.46747 | -0.46136 | 87 ft | 7 kts | 90° |
| 2026-04-15 10:30 | 51.46748 | -0.46058 | 89 ft | 7 kts | 89° |
| 2026-04-15 10:30 | 51.46748 | -0.45985 | 86 ft | 6 kts | 89° |
| 2026-04-15 10:31 | 51.46748 | -0.45917 | 86 ft | 6 kts | 90° |
| 2026-04-15 10:31 | 51.46748 | -0.45853 | 87 ft | 5 kts | 90° |
| 2026-04-15 10:31 | 51.46748 | -0.45790 | 87 ft | 8 kts | 90° |
| 2026-04-15 10:31 | 51.46750 | -0.45667 | 86 ft | 12 kts | 89° |
| 2026-04-15 10:32 | 51.46751 | -0.45538 | 86 ft | 11 kts | 89° |
| 2026-04-15 10:32 | 51.46750 | -0.45420 | 86 ft | 10 kts | 90° |
| 2026-04-15 10:32 | 51.46750 | -0.45316 | 86 ft | 9 kts | 90° |
| 2026-04-15 10:32 | 51.46750 | -0.45224 | 86 ft | 8 kts | 90° |
| 2026-04-15 10:33 | 51.46751 | -0.45144 | 86 ft | 7 kts | 89° |
| 2026-04-15 10:33 | 51.46751 | -0.45071 | 86 ft | 6 kts | 89° |
| 2026-04-15 10:33 | 51.46751 | -0.45003 | 86 ft | 6 kts | 90° |
| 2026-04-15 10:33 | 51.46751 | -0.44940 | 86 ft | 5 kts | 90° |
| 2026-04-15 10:34 | 51.46751 | -0.44881 | 86 ft | 5 kts | 90° |
| 2026-04-15 10:34 | 51.46751 | -0.44822 | 86 ft | 5 kts | 90° |
| 2026-04-15 10:34 | 51.46752 | -0.44773 | 86 ft | 5 kts | 89° |
| 2026-04-15 10:34 | 51.46752 | -0.44718 | 86 ft | 5 kts | 89° |
| 2026-04-15 10:35 | 51.46753 | -0.44662 | 86 ft | 8 kts | 91° |
| 2026-04-15 10:35 | 51.46752 | -0.44530 | 86 ft | 13 kts | 89° |
| 2026-04-15 10:35 | 51.46753 | -0.44387 | 86 ft | 13 kts | 89° |
| 2026-04-15 10:35 | 51.46754 | -0.44252 | 86 ft | 12 kts | 90° |
| 2026-04-15 10:36 | 51.46755 | -0.44124 | 87 ft | 11 kts | 85° |
| 2026-04-15 10:36 | 51.46769 | -0.44005 | 87 ft | 11 kts | 83° |
| 2026-04-15 10:36 | 51.46771 | -0.43889 | 89 ft | 10 kts | 89° |
| 2026-04-15 10:36 | 51.46771 | -0.43778 | 89 ft | 10 kts | 90° |
| 2026-04-15 10:37 | 51.46771 | -0.43670 | 88 ft | 10 kts | 90° |
| 2026-04-15 10:37 | 51.46772 | -0.43564 | 87 ft | 10 kts | 90° |
| 2026-04-15 10:37 | 51.46751 | -0.43471 | 87 ft | 9 kts | 140° |
| 2026-04-15 10:37 | 51.46699 | -0.43442 | 86 ft | 8 kts | 172° |
| 2026-04-15 10:38 | 51.46649 | -0.43437 | 88 ft | 7 kts | 179° |
| 2026-04-15 10:38 | 51.46618 | -0.43437 | 89 ft | 0 kts | 180° |
| 2026-04-15 10:39 | 51.46617 | -0.43437 | 89 ft | 1 kts | 179° |
| 2026-04-15 10:39 | 51.46598 | -0.43436 | 88 ft | 7 kts | 179° |
| 2026-04-15 10:39 | 51.46541 | -0.43435 | 87 ft | 9 kts | 179° |
| 2026-04-15 10:39 | 51.46501 | -0.43485 | 87 ft | 8 kts | 253° |
| 2026-04-15 10:40 | 51.46526 | -0.43554 | 89 ft | 8 kts | 321° |
| 2026-04-15 10:40 | 51.46577 | -0.43601 | 90 ft | 9 kts | 352° |
| 2026-04-15 10:40 | 51.46645 | -0.43603 | 86 ft | 11 kts | 0° |
| 2026-04-15 10:40 | 51.46723 | -0.43604 | 86 ft | 12 kts | 360° |
| 2026-04-15 10:41 | 51.46810 | -0.43600 | 86 ft | 13 kts | 6° |
| 2026-04-15 10:41 | 51.46907 | -0.43603 | 86 ft | 15 kts | 348° |
| 2026-04-15 10:41 | 51.47009 | -0.43606 | 86 ft | 16 kts | 356° |
| 2026-04-15 10:41 | 51.47127 | -0.43605 | 86 ft | 18 kts | 11° |
| 2026-04-15 10:42 | 51.47261 | -0.43588 | 86 ft | 20 kts | 5° |
| 2026-04-15 10:42 | 51.47370 | -0.43460 | 86 ft | 21 kts | 43° |
| 2026-04-15 10:42 | 51.47485 | -0.43293 | 86 ft | 24 kts | 41° |
| 2026-04-15 10:42 | 51.47615 | -0.43252 | 86 ft | 11 kts | 1° |
| 2026-04-15 10:43 | 51.47688 | -0.43311 | 87 ft | 13 kts | 321° |
| 2026-04-15 10:43 | 51.47697 | -0.43325 | 91 ft | 0 kts | 314° |
| 2026-04-15 10:44 | 51.47698 | -0.43328 | 87 ft | 1 kts | 314° |
| 2026-04-15 10:44 | 51.47732 | -0.43378 | 89 ft | 12 kts | 316° |
| 2026-04-15 10:44 | 51.47767 | -0.43508 | 89 ft | 0 kts | 269° |
| 2026-04-15 10:46 | 51.47767 | -0.43605 | 88 ft | 36 kts | 269° |
| 2026-04-15 10:46 | 51.47763 | -0.44500 | 88 ft | 121 kts | 270° |
| 2026-04-15 10:46 | 51.47717 | -0.46157 | 394 ft | 159 kts | 262° |
| 2026-04-15 10:46 | 51.47713 | -0.47921 | 1436 ft | 156 kts | 264° |
| 2026-04-15 10:47 | 51.47712 | -0.49674 | 2324 ft | 163 kts | 263° |
| 2026-04-15 10:47 | 51.47698 | -0.51600 | 2943 ft | 182 kts | 263° |
| 2026-04-15 10:47 | 51.47501 | -0.53669 | 3522 ft | 195 kts | 241° |
| 2026-04-15 10:47 | 51.46552 | -0.55286 | 4062 ft | 211 kts | 207° |
| 2026-04-15 10:48 | 51.45089 | -0.55728 | 4876 ft | 222 kts | 175° |
| 2026-04-15 10:48 | 51.43645 | -0.54877 | 5819 ft | 230 kts | 154° |
| 2026-04-15 10:48 | 51.42331 | -0.53330 | 6521 ft | 244 kts | 144° |
| 2026-04-15 10:48 | 51.41016 | -0.51384 | 6433 ft | 265 kts | 140° |
| 2026-04-15 10:49 | 51.39740 | -0.49314 | 6286 ft | 259 kts | 139° |
| 2026-04-15 10:49 | 51.38470 | -0.47249 | 6157 ft | 261 kts | 140° |
| 2026-04-15 10:49 | 51.37183 | -0.45206 | 6037 ft | 260 kts | 140° |
| 2026-04-15 10:49 | 51.35890 | -0.43193 | 6001 ft | 259 kts | 141° |
| 2026-04-15 10:50 | 51.34593 | -0.41197 | 6000 ft | 260 kts | 141° |
| 2026-04-15 10:50 | 51.33287 | -0.39198 | 5994 ft | 260 kts | 141° |
| 2026-04-15 10:50 | 51.31986 | -0.37200 | 6019 ft | 260 kts | 139° |
| 2026-04-15 10:50 | 51.31033 | -0.34702 | 6025 ft | 272 kts | 112° |
| 2026-04-15 10:51 | 51.30880 | -0.31642 | 6026 ft | 284 kts | 88° |
| 2026-04-15 10:51 | 51.31197 | -0.28520 | 6021 ft | 284 kts | 84° |
| 2026-04-15 10:51 | 51.31496 | -0.25440 | 6020 ft | 284 kts | 88° |
| 2026-04-15 10:51 | 51.31666 | -0.22305 | 6021 ft | 282 kts | 92° |
| 2026-04-15 10:52 | 51.31721 | -0.19191 | 6024 ft | 280 kts | 95° |
| 2026-04-15 10:52 | 51.31708 | -0.16078 | 6023 ft | 280 kts | 96° |
| 2026-04-15 10:52 | 51.31665 | -0.12966 | 6025 ft | 279 kts | 96° |
| 2026-04-15 10:52 | 51.31616 | -0.09870 | 6019 ft | 278 kts | 96° |
| 2026-04-15 10:53 | 51.31568 | -0.06782 | 6017 ft | 280 kts | 96° |
| 2026-04-15 10:53 | 51.31520 | -0.03714 | 6020 ft | 280 kts | 96° |
| 2026-04-15 10:53 | 51.31472 | -0.00604 | 6013 ft | 280 kts | 96° |
| 2026-04-15 10:53 | 51.31422 | 0.02503 | 5915 ft | 280 kts | 96° |
| 2026-04-15 10:54 | 51.31372 | 0.05627 | 5886 ft | 282 kts | 96° |
| 2026-04-15 10:54 | 51.31323 | 0.08765 | 5930 ft | 283 kts | 96° |
| 2026-04-15 10:54 | 51.31272 | 0.11917 | 6408 ft | 285 kts | 96° |
| 2026-04-15 10:54 | 51.31224 | 0.15108 | 7405 ft | 289 kts | 97° |
| 2026-04-15 10:55 | 51.31168 | 0.18338 | 8399 ft | 292 kts | 97° |
| 2026-04-15 10:55 | 51.31110 | 0.21624 | 9329 ft | 299 kts | 97° |
| 2026-04-15 10:55 | 51.31051 | 0.24975 | 10211 ft | 305 kts | 97° |
| 2026-04-15 10:55 | 51.30990 | 0.28388 | 11082 ft | 310 kts | 97° |
| 2026-04-15 10:56 | 51.30928 | 0.31857 | 11918 ft | 315 kts | 96° |
| 2026-04-15 10:56 | 51.30866 | 0.35335 | 12757 ft | 320 kts | 96° |
| 2026-04-15 10:56 | 51.30800 | 0.38912 | 13600 ft | 325 kts | 96° |
| 2026-04-15 10:56 | 51.30734 | 0.42536 | 14379 ft | 327 kts | 96° |
| 2026-04-15 10:57 | 51.30667 | 0.46188 | 15189 ft | 331 kts | 96° |
| 2026-04-15 10:57 | 51.30521 | 0.53633 | 16761 ft | 340 kts | 96° |
| 2026-04-15 10:57 | 51.30443 | 0.57432 | 17589 ft | 343 kts | 98° |
| 2026-04-15 10:58 | 51.30132 | 0.61207 | 18227 ft | 345 kts | 108° |
| 2026-04-15 10:58 | 51.29502 | 0.64836 | 18339 ft | 342 kts | 112° |
| 2026-04-15 10:58 | 51.28824 | 0.68468 | 18459 ft | 341 kts | 112° |
| 2026-04-15 10:58 | 51.28148 | 0.72112 | 18570 ft | 343 kts | 112° |
| 2026-04-15 10:59 | 51.27470 | 0.75781 | 18973 ft | 347 kts | 112° |
| 2026-04-15 10:59 | 51.26792 | 0.79469 | 19737 ft | 347 kts | 112° |
| 2026-04-15 10:59 | 51.26105 | 0.83198 | 20402 ft | 351 kts | 112° |
| 2026-04-15 10:59 | 51.25412 | 0.86953 | 21087 ft | 354 kts | 112° |
| 2026-04-15 11:00 | 51.24712 | 0.90742 | 21737 ft | 358 kts | 112° |
| 2026-04-15 11:00 | 51.24004 | 0.94575 | 22418 ft | 362 kts | 112° |
| 2026-04-15 11:00 | 51.23283 | 0.98450 | 22983 ft | 366 kts | 111° |
| 2026-04-15 11:00 | 51.22553 | 1.02364 | 23582 ft | 370 kts | 111° |
| 2026-04-15 11:01 | 51.21817 | 1.06317 | 24101 ft | 373 kts | 111° |
| 2026-04-15 11:01 | 51.21085 | 1.10241 | 24602 ft | 376 kts | 111° |
| 2026-04-15 11:01 | 51.20334 | 1.14258 | 25085 ft | 379 kts | 111° |
| 2026-04-15 11:01 | 51.19577 | 1.18298 | 25565 ft | 382 kts | 112° |
| 2026-04-15 11:02 | 51.18812 | 1.22371 | 26036 ft | 385 kts | 112° |
| 2026-04-15 11:02 | 51.18039 | 1.26481 | 26495 ft | 388 kts | 112° |
| 2026-04-15 11:02 | 51.17261 | 1.30608 | 26954 ft | 391 kts | 112° |
| 2026-04-15 11:02 | 51.16506 | 1.34792 | 27413 ft | 396 kts | 108° |
| 2026-04-15 11:03 | 51.16080 | 1.39174 | 27847 ft | 405 kts | 99° |
| 2026-04-15 11:03 | 51.15881 | 1.43672 | 28261 ft | 408 kts | 98° |
| 2026-04-15 11:03 | 51.15677 | 1.48125 | 28729 ft | 409 kts | 98° |
| 2026-04-15 11:03 | 51.15464 | 1.52663 | 28897 ft | 413 kts | 98° |
| 2026-04-15 11:04 | 51.15245 | 1.57224 | 29000 ft | 412 kts | 98° |
| 2026-04-15 11:04 | 51.15024 | 1.61778 | 29050 ft | 413 kts | 98° |
| 2026-04-15 11:04 | 51.14573 | 1.70880 | 29054 ft | 412 kts | 99° |
| 2026-04-15 11:05 | 51.14115 | 1.79984 | 29054 ft | 412 kts | 99° |
| 2026-04-15 11:05 | 51.13653 | 1.89020 | 29074 ft | 412 kts | 99° |
| 2026-04-15 11:06 | 51.13175 | 1.98126 | 29076 ft | 413 kts | 98° |
| 2026-04-15 11:06 | 51.12694 | 2.07234 | 29075 ft | 413 kts | 98° |
| 2026-04-15 11:07 | 51.12207 | 2.16336 | 29076 ft | 413 kts | 98° |
| 2026-04-15 11:07 | 51.11716 | 2.25373 | 29074 ft | 413 kts | 98° |
| 2026-04-15 11:08 | 51.11215 | 2.34471 | 29074 ft | 413 kts | 98° |
| 2026-04-15 11:08 | 51.10704 | 2.43560 | 29072 ft | 412 kts | 98° |
| 2026-04-15 11:09 | 51.10190 | 2.52627 | 29078 ft | 412 kts | 98° |
| 2026-04-15 11:09 | 51.09672 | 2.61643 | 29079 ft | 412 kts | 98° |
| 2026-04-15 11:10 | 51.08512 | 2.70493 | 29085 ft | 408 kts | 110° |
| 2026-04-15 11:10 | 51.06936 | 2.79146 | 29084 ft | 408 kts | 109° |
| 2026-04-15 11:11 | 51.05364 | 2.87809 | 29081 ft | 408 kts | 109° |
| 2026-04-15 11:11 | 51.03792 | 2.96423 | 29083 ft | 408 kts | 109° |
| 2026-04-15 11:12 | 51.02207 | 3.05074 | 29086 ft | 408 kts | 109° |
| 2026-04-15 11:12 | 51.00614 | 3.13720 | 29090 ft | 408 kts | 109° |
| 2026-04-15 11:13 | 50.99015 | 3.22359 | 29093 ft | 408 kts | 109° |
| 2026-04-15 11:13 | 50.97408 | 3.30994 | 29084 ft | 408 kts | 109° |
| 2026-04-15 11:14 | 50.95791 | 3.39640 | 29101 ft | 409 kts | 109° |
| 2026-04-15 11:14 | 50.94180 | 3.48229 | 29101 ft | 409 kts | 109° |
| 2026-04-15 11:15 | 50.92552 | 3.56862 | 29100 ft | 409 kts | 109° |
| 2026-04-15 11:15 | 50.90919 | 3.65483 | 29111 ft | 409 kts | 109° |
| 2026-04-15 11:16 | 50.89260 | 3.74108 | 29229 ft | 411 kts | 109° |
| 2026-04-15 11:16 | 50.88418 | 3.78455 | 29672 ft | 413 kts | 109° |
| 2026-04-15 11:16 | 50.87571 | 3.82822 | 30060 ft | 417 kts | 109° |
| 2026-04-15 11:17 | 50.86720 | 3.87213 | 30430 ft | 419 kts | 109° |
| 2026-04-15 11:17 | 50.85871 | 3.91583 | 30773 ft | 422 kts | 109° |
| 2026-04-15 11:17 | 50.85006 | 3.96028 | 31117 ft | 424 kts | 109° |
| 2026-04-15 11:17 | 50.84134 | 4.00496 | 31455 ft | 426 kts | 109° |
| 2026-04-15 11:18 | 50.83254 | 4.04994 | 31786 ft | 429 kts | 109° |
| 2026-04-15 11:18 | 50.82368 | 4.09514 | 32108 ft | 431 kts | 109° |
| 2026-04-15 11:18 | 50.81476 | 4.14051 | 32431 ft | 434 kts | 109° |
| 2026-04-15 11:18 | 50.80577 | 4.18612 | 32742 ft | 436 kts | 109° |
| 2026-04-15 11:19 | 50.79675 | 4.23177 | 33031 ft | 438 kts | 109° |
| 2026-04-15 11:19 | 50.78757 | 4.27810 | 33328 ft | 441 kts | 109° |
| 2026-04-15 11:19 | 50.77837 | 4.32447 | 33616 ft | 443 kts | 109° |
| 2026-04-15 11:19 | 50.76912 | 4.37096 | 33906 ft | 445 kts | 109° |
| 2026-04-15 11:20 | 50.75979 | 4.41775 | 34177 ft | 447 kts | 109° |
| 2026-04-15 11:20 | 50.75055 | 4.46402 | 34412 ft | 449 kts | 109° |
| 2026-04-15 11:20 | 50.74112 | 4.51108 | 34645 ft | 451 kts | 109° |
| 2026-04-15 11:20 | 50.73161 | 4.55844 | 34876 ft | 453 kts | 109° |
| 2026-04-15 11:21 | 50.72207 | 4.60585 | 35062 ft | 455 kts | 109° |
| 2026-04-15 11:21 | 50.71263 | 4.65372 | 35124 ft | 456 kts | 108° |
| 2026-04-15 11:21 | 50.69426 | 4.74915 | 35137 ft | 454 kts | 108° |
| 2026-04-15 11:22 | 50.67580 | 4.84446 | 35143 ft | 454 kts | 108° |
| 2026-04-15 11:22 | 50.65729 | 4.93893 | 35137 ft | 454 kts | 109° |
| 2026-04-15 11:23 | 50.64764 | 4.98636 | 34964 ft | 454 kts | 109° |
| 2026-04-15 11:23 | 50.64701 | 4.98945 | 34947 ft | 454 kts | 109° |
| 2026-04-15 11:23 | 50.63879 | 5.02920 | 34751 ft | 452 kts | 109° |
| 2026-04-15 11:23 | 50.62892 | 5.07689 | 34513 ft | 449 kts | 109° |
| 2026-04-15 11:24 | 50.61926 | 5.12352 | 34270 ft | 446 kts | 109° |
| 2026-04-15 11:24 | 50.60965 | 5.16985 | 33976 ft | 445 kts | 109° |
| 2026-04-15 11:24 | 50.60003 | 5.21620 | 33422 ft | 446 kts | 109° |
| 2026-04-15 11:24 | 50.59056 | 5.26186 | 32801 ft | 445 kts | 109° |
| 2026-04-15 11:25 | 50.58095 | 5.30807 | 32187 ft | 444 kts | 109° |
| 2026-04-15 11:25 | 50.57134 | 5.35416 | 31580 ft | 443 kts | 109° |
| 2026-04-15 11:25 | 50.56173 | 5.40014 | 30999 ft | 442 kts | 109° |
| 2026-04-15 11:25 | 50.55215 | 5.44590 | 30489 ft | 439 kts | 109° |
| 2026-04-15 11:26 | 50.54267 | 5.49107 | 30200 ft | 433 kts | 109° |
| 2026-04-15 11:26 | 50.53321 | 5.53602 | 29931 ft | 434 kts | 109° |
| 2026-04-15 11:26 | 50.52370 | 5.58112 | 29604 ft | 435 kts | 109° |
| 2026-04-15 11:26 | 50.51417 | 5.62614 | 29081 ft | 434 kts | 109° |
| 2026-04-15 11:27 | 50.50515 | 5.67129 | 28431 ft | 433 kts | 107° |
| 2026-04-15 11:27 | 50.49681 | 5.71658 | 27794 ft | 431 kts | 106° |
| 2026-04-15 11:27 | 50.48860 | 5.76182 | 27173 ft | 430 kts | 106° |
| 2026-04-15 11:27 | 50.48046 | 5.80628 | 26578 ft | 428 kts | 107° |
| 2026-04-15 11:28 | 50.47215 | 5.85109 | 25986 ft | 426 kts | 107° |
| 2026-04-15 11:28 | 50.46384 | 5.89552 | 25413 ft | 424 kts | 107° |
| 2026-04-15 11:28 | 50.45548 | 5.93988 | 24849 ft | 422 kts | 107° |
| 2026-04-15 11:28 | 50.44716 | 5.98390 | 24297 ft | 420 kts | 107° |
| 2026-04-15 11:29 | 50.43886 | 6.02764 | 23742 ft | 418 kts | 107° |
| 2026-04-15 11:29 | 50.43059 | 6.07119 | 23088 ft | 415 kts | 107° |
| 2026-04-15 11:29 | 50.42233 | 6.11451 | 22455 ft | 413 kts | 107° |
| 2026-04-15 11:29 | 50.41423 | 6.15695 | 21836 ft | 411 kts | 107° |
| 2026-04-15 11:30 | 50.40607 | 6.19962 | 21227 ft | 408 kts | 107° |
| 2026-04-15 11:30 | 50.39792 | 6.24213 | 20627 ft | 405 kts | 107° |
| 2026-04-15 11:30 | 50.38982 | 6.28429 | 20044 ft | 403 kts | 107° |
| 2026-04-15 11:30 | 50.38175 | 6.32617 | 19457 ft | 400 kts | 108° |
| 2026-04-15 11:31 | 50.37373 | 6.36772 | 18895 ft | 398 kts | 108° |
| 2026-04-15 11:31 | 50.36611 | 6.40926 | 18316 ft | 395 kts | 104° |
| 2026-04-15 11:31 | 50.36172 | 6.45159 | 17676 ft | 393 kts | 96° |
| 2026-04-15 11:31 | 50.35933 | 6.49409 | 17058 ft | 390 kts | 95° |
| 2026-04-15 11:32 | 50.35681 | 6.53626 | 16444 ft | 388 kts | 96° |
| 2026-04-15 11:32 | 50.35422 | 6.57755 | 15851 ft | 385 kts | 96° |
| 2026-04-15 11:32 | 50.35156 | 6.61911 | 15262 ft | 382 kts | 96° |
| 2026-04-15 11:32 | 50.34890 | 6.66042 | 14679 ft | 380 kts | 96° |
| 2026-04-15 11:33 | 50.34625 | 6.70141 | 14122 ft | 377 kts | 96° |
| 2026-04-15 11:33 | 50.34362 | 6.74213 | 13500 ft | 375 kts | 97° |
| 2026-04-15 11:33 | 50.34104 | 6.78263 | 12874 ft | 373 kts | 96° |
| 2026-04-15 11:33 | 50.33849 | 6.82286 | 12263 ft | 370 kts | 98° |
| 2026-04-15 11:34 | 50.33360 | 6.86098 | 12159 ft | 352 kts | 107° |
| 2026-04-15 11:34 | 50.32582 | 6.89616 | 12161 ft | 332 kts | 115° |
| 2026-04-15 11:34 | 50.31638 | 6.92803 | 12157 ft | 314 kts | 116° |
| 2026-04-15 11:34 | 50.30739 | 6.95817 | 12161 ft | 297 kts | 116° |
| 2026-04-15 11:35 | 50.29892 | 6.98672 | 12159 ft | 281 kts | 116° |
| 2026-04-15 11:35 | 50.29092 | 7.01368 | 12160 ft | 265 kts | 116° |
| 2026-04-15 11:35 | 50.28281 | 7.03848 | 12155 ft | 247 kts | 128° |
| 2026-04-15 11:35 | 50.27309 | 7.05896 | 12159 ft | 230 kts | 129° |
| 2026-04-15 11:36 | 50.26373 | 7.07838 | 12074 ft | 219 kts | 129° |
| 2026-04-15 11:36 | 50.25440 | 7.09753 | 11675 ft | 223 kts | 131° |
| 2026-04-15 11:36 | 50.24422 | 7.11758 | 11853 ft | 244 kts | 130° |
| 2026-04-15 11:36 | 50.23337 | 7.13987 | 12165 ft | 274 kts | 128° |
| 2026-04-15 11:37 | 50.22121 | 7.16550 | 12168 ft | 314 kts | 128° |
| 2026-04-15 11:37 | 50.20749 | 7.19439 | 12166 ft | 349 kts | 128° |
| 2026-04-15 11:37 | 50.19227 | 7.22624 | 12161 ft | 380 kts | 128° |
| 2026-04-15 11:37 | 50.17607 | 7.25994 | 12164 ft | 407 kts | 128° |
| 2026-04-15 11:38 | 50.15854 | 7.29629 | 12165 ft | 431 kts | 128° |
| 2026-04-15 11:38 | 50.14023 | 7.33413 | 12339 ft | 431 kts | 128° |
| 2026-04-15 11:38 | 50.12230 | 7.37122 | 12472 ft | 427 kts | 128° |
| 2026-04-15 11:38 | 50.10537 | 7.40699 | 12220 ft | 395 kts | 128° |
| 2026-04-15 11:39 | 50.08957 | 7.43977 | 12184 ft | 363 kts | 129° |
| 2026-04-15 11:39 | 50.07486 | 7.46978 | 12183 ft | 334 kts | 129° |
| 2026-04-15 11:39 | 50.06120 | 7.49754 | 12118 ft | 321 kts | 129° |
| 2026-04-15 11:39 | 50.04715 | 7.52604 | 11888 ft | 347 kts | 129° |
| 2026-04-15 11:40 | 50.03246 | 7.55595 | 11631 ft | 348 kts | 128° |
| 2026-04-15 11:40 | 50.01788 | 7.58575 | 11389 ft | 347 kts | 129° |
| 2026-04-15 11:40 | 50.00326 | 7.61564 | 11177 ft | 348 kts | 129° |
| 2026-04-15 11:40 | 49.98858 | 7.64567 | 10726 ft | 350 kts | 129° |
| 2026-04-15 11:41 | 49.97367 | 7.67607 | 9946 ft | 357 kts | 128° |
| 2026-04-15 11:41 | 49.95866 | 7.70663 | 8921 ft | 357 kts | 129° |
| 2026-04-15 11:41 | 49.94349 | 7.73754 | 7590 ft | 364 kts | 128° |
| 2026-04-15 11:41 | 49.92853 | 7.76792 | 6403 ft | 365 kts | 128° |
| 2026-04-15 11:42 | 49.91355 | 7.79832 | 5490 ft | 356 kts | 128° |
| 2026-04-15 11:42 | 49.89884 | 7.82874 | 4462 ft | 350 kts | 122° |
| 2026-04-15 11:42 | 49.89068 | 7.86246 | 4219 ft | 323 kts | 98° |
| 2026-04-15 11:42 | 49.89136 | 7.89581 | 4069 ft | 299 kts | 78° |
| 2026-04-15 11:43 | 49.89798 | 7.92508 | 3918 ft | 277 kts | 69° |
| 2026-04-15 11:43 | 49.90473 | 7.95182 | 3813 ft | 257 kts | 70° |
| 2026-04-15 11:43 | 49.91118 | 7.97696 | 3653 ft | 250 kts | 68° |
| 2026-04-15 11:43 | 49.91800 | 8.00234 | 3557 ft | 257 kts | 69° |
| 2026-04-15 11:44 | 49.92443 | 8.02774 | 3466 ft | 255 kts | 70° |
| 2026-04-15 11:44 | 49.93062 | 8.05349 | 3352 ft | 255 kts | 70° |
| 2026-04-15 11:44 | 49.93682 | 8.07919 | 3245 ft | 256 kts | 70° |
| 2026-04-15 11:44 | 49.94310 | 8.10511 | 3215 ft | 257 kts | 70° |
| 2026-04-15 11:45 | 49.94929 | 8.13103 | 3194 ft | 252 kts | 70° |
| 2026-04-15 11:45 | 49.95522 | 8.15587 | 3203 ft | 240 kts | 70° |
| 2026-04-15 11:45 | 49.96089 | 8.17932 | 3196 ft | 224 kts | 70° |
| 2026-04-15 11:45 | 49.96609 | 8.20101 | 3215 ft | 204 kts | 71° |
| 2026-04-15 11:46 | 49.97063 | 8.22042 | 3195 ft | 184 kts | 70° |
| 2026-04-15 11:46 | 49.97502 | 8.23816 | 3181 ft | 167 kts | 70° |
| 2026-04-15 11:46 | 49.97882 | 8.25404 | 3190 ft | 147 kts | 70° |
| 2026-04-15 11:46 | 49.98231 | 8.26840 | 3179 ft | 142 kts | 70° |
| 2026-04-15 11:47 | 49.98559 | 8.28221 | 3198 ft | 133 kts | 70° |
| 2026-04-15 11:47 | 49.98877 | 8.29555 | 3181 ft | 133 kts | 70° |
| 2026-04-15 11:47 | 49.99201 | 8.30903 | 3027 ft | 133 kts | 70° |
| 2026-04-15 11:47 | 49.99523 | 8.32255 | 2861 ft | 132 kts | 71° |
| 2026-04-15 11:48 | 49.99838 | 8.33560 | 2667 ft | 127 kts | 71° |
| 2026-04-15 11:48 | 50.00149 | 8.34860 | 2492 ft | 131 kts | 70° |
| 2026-04-15 11:48 | 50.00463 | 8.36171 | 2326 ft | 130 kts | 70° |
| 2026-04-15 11:48 | 50.00778 | 8.37486 | 2125 ft | 130 kts | 70° |
| 2026-04-15 11:49 | 50.01093 | 8.38798 | 1940 ft | 131 kts | 70° |
| 2026-04-15 11:49 | 50.01400 | 8.40091 | 1753 ft | 125 kts | 70° |
| 2026-04-15 11:49 | 50.01713 | 8.41384 | 1565 ft | 130 kts | 70° |
| 2026-04-15 11:49 | 50.02019 | 8.42665 | 1368 ft | 123 kts | 70° |
| 2026-04-15 11:50 | 50.02320 | 8.43925 | 1158 ft | 125 kts | 70° |
| 2026-04-15 11:50 | 50.02598 | 8.45197 | 952 ft | 123 kts | 70° |
| 2026-04-15 11:50 | 50.02857 | 8.46486 | 686 ft | 127 kts | 70° |
| 2026-04-15 11:50 | 50.03113 | 8.47775 | 585 ft | 120 kts | 68° |
| 2026-04-15 11:51 | 50.03480 | 8.49003 | 520 ft | 127 kts | 62° |
| 2026-04-15 11:51 | 50.03827 | 8.50273 | 362 ft | 130 kts | 68° |
| 2026-04-15 11:51 | 50.04117 | 8.51415 | 357 ft | 88 kts | 72° |
| 2026-04-15 11:51 | 50.04277 | 8.52094 | 360 ft | 53 kts | 69° |
| 2026-04-15 11:52 | 50.04387 | 8.52607 | 366 ft | 34 kts | 83° |
| 2026-04-15 11:52 | 50.04388 | 8.52834 | 367 ft | 15 kts | 95° |
| 2026-04-15 11:52 | 50.04381 | 8.52910 | 370 ft | 0 kts | 98° |
| 2026-04-15 11:53 | 50.04381 | 8.52911 | 370 ft | 1 kts | 98° |
| 2026-04-15 11:53 | 50.04379 | 8.52935 | 368 ft | 3 kts | 98° |
| 2026-04-15 11:54 | 50.04374 | 8.52982 | 369 ft | 5 kts | 98° |
| 2026-04-15 11:54 | 50.04368 | 8.53050 | 372 ft | 7 kts | 98° |
| 2026-04-15 11:54 | 50.04359 | 8.53142 | 371 ft | 10 kts | 98° |
| 2026-04-15 11:54 | 50.04354 | 8.53256 | 372 ft | 11 kts | 89° |
| 2026-04-15 11:55 | 50.04366 | 8.53379 | 374 ft | 11 kts | 60° |
| 2026-04-15 11:55 | 50.04393 | 8.53499 | 375 ft | 13 kts | 77° |
| 2026-04-15 11:55 | 50.04407 | 8.53644 | 376 ft | 15 kts | 83° |
| 2026-04-15 11:55 | 50.04422 | 8.53832 | 374 ft | 19 kts | 83° |
| 2026-04-15 11:56 | 50.04430 | 8.54020 | 377 ft | 18 kts | 84° |
| 2026-04-15 11:56 | 50.04445 | 8.54234 | 370 ft | 24 kts | 85° |
| 2026-04-15 11:56 | 50.04438 | 8.54554 | 354 ft | 32 kts | 105° |
| 2026-04-15 11:56 | 50.04317 | 8.54767 | 356 ft | 20 kts | 150° |
| 2026-04-15 11:57 | 50.04179 | 8.54851 | 359 ft | 23 kts | 160° |
| 2026-04-15 11:57 | 50.04026 | 8.54962 | 360 ft | 8 kts | 116° |
| 2026-04-15 11:57 | 50.04030 | 8.55065 | 366 ft | 11 kts | 72° |
| 2026-04-15 11:58 | 50.04036 | 8.55091 | 362 ft | 0 kts | 70° |
| 2026-04-15 11:58 | 50.04036 | 8.55092 | 362 ft | 1 kts | 70° |
| 2026-04-15 11:58 | 50.04043 | 8.55121 | 361 ft | 5 kts | 70° |
| 2026-04-15 11:58 | 50.04059 | 8.55187 | 362 ft | 8 kts | 70° |
| 2026-04-15 11:59 | 50.04083 | 8.55288 | 363 ft | 12 kts | 69° |
| 2026-04-15 11:59 | 50.04119 | 8.55439 | 358 ft | 17 kts | 69° |
| 2026-04-15 11:59 | 50.04165 | 8.55628 | 357 ft | 20 kts | 69° |
| 2026-04-15 11:59 | 50.04220 | 8.55851 | 352 ft | 24 kts | 70° |
| 2026-04-15 12:00 | 50.04279 | 8.56102 | 352 ft | 26 kts | 69° |
| 2026-04-15 12:00 | 50.04343 | 8.56372 | 353 ft | 26 kts | 71° |
| 2026-04-15 12:00 | 50.04407 | 8.56642 | 353 ft | 27 kts | 69° |
| 2026-04-15 12:00 | 50.04473 | 8.56917 | 355 ft | 29 kts | 70° |
| 2026-04-15 12:01 | 50.04543 | 8.57211 | 352 ft | 30 kts | 70° |
| 2026-04-15 12:01 | 50.04617 | 8.57508 | 354 ft | 30 kts | 69° |
| 2026-04-15 12:01 | 50.04687 | 8.57812 | 349 ft | 29 kts | 69° |
| 2026-04-15 12:01 | 50.04801 | 8.58060 | 355 ft | 27 kts | 66° |
| 2026-04-15 12:02 | 50.04869 | 8.58340 | 352 ft | 29 kts | 69° |
| 2026-04-15 12:02 | 50.04940 | 8.58639 | 347 ft | 25 kts | 69° |